Time;durP1;ratioP1;P1;durP2;ratioP2;P2;SDS_P1;SDS_P2;PMS_P1;PMS_P2;Temp;Humidity;BMP_temperature;BMP_pressure;BME280_temperature;BME280_humidity;BME280_pressure;Samples;Min_cycle;Max_cycle;Signal;HPM_P1;HPM_P2
2022/08/27 00:01:47;;;;;;;;;;;20.70;60.00;;;16.98;100.00;95426.53;4970177;28;19953;-45
2022/08/27 00:04:16;;;;;;;;;;;20.70;60.10;;;16.97;100.00;95426.84;4969776;28;19910;-45
2022/08/27 00:06:45;;;;;;;;;;;20.70;60.20;;;16.95;100.00;95427.13;4955159;28;19910;-46
2022/08/27 00:09:12;;;;;;;;;;;20.60;60.30;;;16.94;100.00;95427.47;4938265;28;19910;-45
2022/08/27 00:11:38;;;;;;;;;;;20.60;60.30;;;16.95;100.00;95431.72;4954112;28;19914;-47
2022/08/27 00:14:11;;;;;;;;;;;20.60;60.40;;;16.93;100.00;95426.66;4953594;28;19957;-46
2022/08/27 00:16:41;;;;;;;;;;;20.60;60.50;;;16.93;100.00;95428.56;4955147;28;19905;-48
2022/08/27 00:19:07;;;;;;;;;;;20.60;60.60;;;16.88;100.00;95418.72;4954085;28;19905;-47
2022/08/27 00:21:37;;;;;;;;;;;20.60;60.70;;;16.86;100.00;95421.72;4954990;28;19906;-44
2022/08/27 00:24:12;;;;;;;;;;;20.60;60.70;;;16.88;100.00;95418.72;4954091;28;19910;-45
2022/08/27 00:26:39;;;;;;;;;;;20.60;60.80;;;16.90;100.00;95413.06;4955128;28;19906;-44
2022/08/27 00:29:11;;;;;;;;;;;20.60;60.80;;;16.86;100.00;95410.97;4955113;28;19961;-47
2022/08/27 00:31:46;;;;;;;;;;;20.60;61.00;;;16.87;100.00;95415.25;4953884;28;20480;-47
2022/08/27 00:34:21;;;;;;;;;;;20.60;61.00;;;16.86;100.00;95420.94;4969215;28;19985;-47
2022/08/27 00:36:48;;;;;;;;;;;20.60;61.10;;;16.84;100.00;95410.47;4953458;28;19906;-46
2022/08/27 00:39:13;;;;;;;;;;;20.60;61.30;;;16.80;100.00;95401.44;4969186;28;19925;-45
2022/08/27 00:41:42;;;;;;;;;;;20.50;61.30;;;16.84;100.00;95409.69;4953860;28;19906;-45
2022/08/27 00:44:09;;;;;;;;;;;20.50;61.40;;;16.84;100.00;95399.72;4953440;28;20024;-45
2022/08/27 00:46:44;;;;;;;;;;;20.50;61.50;;;16.80;100.00;95392.59;4953392;28;19917;-45
2022/08/27 00:49:39;;;;;;;;;;;20.50;61.50;;;16.81;100.00;95394.94;4954777;28;19934;-44
2022/08/27 00:52:38;;;;;;;;;;;20.50;61.60;;;16.81;100.00;95396.84;4954539;28;20431;-44
2022/08/27 00:55:32;;;;;;;;;;;20.50;61.70;;;16.77;100.00;95385.91;4951098;28;19982;-46
2022/08/27 00:58:45;;;;;;;;;;;20.40;61.70;;;16.78;100.00;95387.50;4933744;29;19945;-46
2022/08/27 01:01:16;;;;;;;;;;;20.40;61.80;;;16.78;100.00;95382.13;4924740;28;20000;-46
2022/08/27 01:03:48;;;;;;;;;;;20.40;61.90;;;16.76;100.00;95378.16;4949191;28;19905;-46
2022/08/27 01:06:17;;;;;;;;;;;20.50;62.00;;;16.74;100.00;95375.75;4916953;29;19906;-44
2022/08/27 01:09:00;;;;;;;;;;;20.40;61.80;;;16.71;100.00;95379.06;4900350;29;19914;-44
2022/08/27 01:11:36;;;;;;;;;;;20.40;61.80;;;16.70;100.00;95380.13;4918109;29;19993;-44
2022/08/27 01:14:05;;;;;;;;;;;20.50;61.80;;;16.67;100.00;95372.69;4933615;28;19910;-47
2022/08/27 01:16:40;;;;;;;;;;;20.50;62.00;;;16.66;100.00;95374.59;4935247;28;19965;-44
2022/08/27 01:19:36;;;;;;;;;;;20.40;62.60;;;16.67;100.00;95378.06;4936245;28;20408;-45
2022/08/27 01:23:17;;;;;;;;;;;20.50;61.90;;;16.70;100.00;95380.13;4916095;28;19945;-44
2022/08/27 01:25:47;;;;;;;;;;;20.50;61.90;;;16.69;100.00;95378.56;4875559;29;19951;-46
2022/08/27 01:28:15;;;;;;;;;;;20.50;61.80;;;16.70;100.00;95380.13;4860424;29;20337;-44
2022/08/27 01:30:42;;;;;;;;;;;20.50;61.90;;;16.70;100.00;95376.66;4904714;28;20416;-46
2022/08/27 01:33:19;;;;;;;;;;;20.50;61.90;;;16.68;100.00;95368.91;4934714;28;20339;-44
2022/08/27 01:35:49;;;;;;;;;;;20.50;61.90;;;16.69;100.00;95370.50;4934363;29;19916;-45
2022/08/27 01:38:18;;;;;;;;;;;20.50;62.00;;;16.70;100.00;95374.75;4933194;29;20320;-47
2022/08/27 01:40:44;;;;;;;;;;;20.50;62.00;;;16.68;100.00;95368.91;4917889;29;19906;-44
2022/08/27 01:43:10;;;;;;;;;;;20.60;62.10;;;16.71;100.00;95378.25;4933314;29;19921;-47
2022/08/27 01:45:51;;;;;;;;;;;20.50;62.00;;;16.72;100.00;95374.47;4949003;28;19929;-44
2022/08/27 01:48:21;;;;;;;;;;;20.60;62.10;;;16.69;100.00;95373.19;4934517;29;19906;-44
2022/08/27 01:50:54;;;;;;;;;;;20.50;62.00;;;16.69;100.00;95375.09;4933118;29;19916;-44
2022/08/27 01:53:26;;;;;;;;;;;20.60;62.10;;;16.69;100.00;95378.56;4934282;29;19906;-45
2022/08/27 01:55:57;;;;;;;;;;;20.60;62.00;;;16.70;100.00;95376.66;4936716;28;19992;-45
2022/08/27 01:58:29;;;;;;;;;;;20.60;62.00;;;16.72;100.00;95374.47;4925690;29;19907;-44
2022/08/27 02:01:02;;;;;;;;;;;20.60;62.00;;;16.70;100.00;95379.34;4934165;29;19906;-44
2022/08/27 02:03:35;;;;;;;;;;;20.60;62.00;;;16.68;100.00;95370.81;4935459;28;20285;-47
2022/08/27 02:06:05;;;;;;;;;;;20.60;62.10;;;16.66;99.82;95366.53;4932179;29;20447;-45
2022/08/27 02:08:44;;;;;;;;;;;20.60;62.10;;;16.64;99.79;95368.75;4933743;29;19943;-45
2022/08/27 02:11:09;;;;;;;;;;;20.60;62.10;;;16.62;99.92;95367.44;4949036;28;19910;-49
2022/08/27 02:13:41;;;;;;;;;;;20.50;62.00;;;16.60;99.65;95364.28;4940484;28;19914;-45
2022/08/27 02:16:08;;;;;;;;;;;20.60;62.10;;;16.58;99.74;95359.22;4940943;28;19958;-44
2022/08/27 02:18:37;;;;;;;;;;;20.50;62.10;;;16.57;99.72;95365.66;4930366;29;19906;-44
2022/08/27 02:21:07;;;;;;;;;;;20.50;62.10;;;16.55;99.86;95362.50;4936638;28;19961;-46
2022/08/27 02:23:38;;;;;;;;;;;20.50;62.20;;;16.52;99.94;95365.03;4934531;28;19917;-44
2022/08/27 02:26:04;;;;;;;;;;;20.50;62.20;;;16.51;99.75;95366.13;4932810;29;19907;-46
2022/08/27 02:28:30;;;;;;;;;;;20.40;62.20;;;16.49;99.81;95362.97;4933660;29;19910;-46
2022/08/27 02:30:55;;;;;;;;;;;20.40;62.30;;;16.47;99.70;95357.09;4936155;28;19907;-46
2022/08/27 02:33:25;;;;;;;;;;;20.40;62.30;;;16.46;99.78;95358.19;4933233;29;20377;-46
2022/08/27 02:35:53;;;;;;;;;;;20.30;62.30;;;16.45;99.81;95359.28;4950583;28;19914;-49
2022/08/27 02:38:23;;;;;;;;;;;20.30;62.40;;;16.43;100.00;95354.22;4932402;29;19908;-48
2022/08/27 02:40:49;;;;;;;;;;;20.30;62.40;;;16.41;99.96;95357.19;4932619;28;19956;-44
2022/08/27 02:43:18;;;;;;;;;;;20.30;62.50;;;16.41;99.89;95353.72;4931967;29;19910;-48
2022/08/27 02:45:43;;;;;;;;;;;20.30;62.60;;;16.39;100.00;95359.41;4933313;29;19906;-46
2022/08/27 02:48:09;;;;;;;;;;;20.30;62.60;;;16.37;100.00;95352.75;4942812;28;20297;-47
2022/08/27 02:50:36;;;;;;;;;;;20.30;62.60;;;16.35;100.00;95353.03;4932091;28;19913;-44
2022/08/27 02:53:05;;;;;;;;;;;20.30;62.70;;;16.36;100.00;95351.97;4933094;29;20743;-48
2022/08/27 02:55:32;;;;;;;;;;;20.30;62.70;;;16.35;100.00;95350.34;4932156;29;19918;-46
2022/08/27 02:58:01;;;;;;;;;;;20.30;62.70;;;16.36;100.00;95348.50;4916162;29;20302;-44
2022/08/27 03:00:30;;;;;;;;;;;20.30;62.80;;;16.38;100.00;95346.28;4932593;29;19910;-44
2022/08/27 03:02:57;;;;;;;;;;;20.30;63.00;;;16.37;100.00;95340.09;4915715;29;20289;-44
2022/08/27 03:05:23;;;;;;;;;;;20.30;62.90;;;16.36;100.00;95345.81;4931905;29;20031;-47
2022/08/27 03:07:49;;;;;;;;;;;20.30;62.90;;;16.36;100.00;95345.81;4931545;29;20389;-45
2022/08/27 03:10:19;;;;;;;;;;;20.30;63.00;;;16.31;100.00;95343.22;4931646;29;19906;-44
2022/08/27 03:12:50;;;;;;;;;;;20.30;63.00;;;16.27;100.00;95347.63;4935939;29;19906;-44
2022/08/27 03:15:19;;;;;;;;;;;20.30;63.00;;;16.29;100.00;95346.22;4951891;29;19945;-44
2022/08/27 03:21:07;;;;;;;;;;;20.20;63.10;;;16.37;100.00;95342.00;4948958;29;19968;-44
2022/08/27 03:23:34;;;;;;;;;;;20.20;63.10;;;16.39;100.00;95334.44;4909976;29;19921;-49
2022/08/27 03:26:11;;;;;;;;;;;20.30;63.20;;;16.40;100.00;95336.81;4915826;29;19950;-44
2022/08/27 03:28:38;;;;;;;;;;;20.30;63.30;;;16.40;100.00;95336.00;4945938;28;20001;-43
2022/08/27 03:31:08;;;;;;;;;;;20.30;63.20;;;16.39;100.00;95334.44;4968097;28;19913;-44
2022/08/27 03:33:42;;;;;;;;;;;20.30;63.30;;;16.40;100.00;95336.81;4953709;28;19913;-44
2022/08/27 03:36:11;;;;;;;;;;;20.30;63.20;;;16.40;100.00;95333.31;4955597;28;19937;-44
2022/08/27 03:38:37;;;;;;;;;;;20.30;63.20;;;16.39;100.00;95334.44;4954332;28;19906;-43
2022/08/27 03:41:05;;;;;;;;;;;20.30;63.20;;;16.38;100.00;95330.94;4938385;28;20361;-44
2022/08/27 03:43:31;;;;;;;;;;;20.30;63.20;;;16.36;100.00;95330.47;4954845;28;20316;-45
2022/08/27 03:46:00;;;;;;;;;;;20.30;63.30;;;16.36;100.00;95335.06;4954116;28;20386;-44
2022/08/27 03:48:31;;;;;;;;;;;20.30;63.30;;;16.34;100.00;95331.88;4938059;28;19910;-44
2022/08/27 03:51:09;;;;;;;;;;;20.30;63.30;;;16.34;100.00;95334.56;4936633;29;20456;-44
2022/08/27 03:53:38;;;;;;;;;;;20.30;63.30;;;16.33;100.00;95324.91;4934990;29;19913;-44
2022/08/27 03:56:10;;;;;;;;;;;20.30;63.40;;;16.33;100.00;95331.06;4934791;29;19918;-44
2022/08/27 03:58:43;;;;;;;;;;;20.30;63.40;;;16.31;100.00;95329.78;4934562;28;19910;-46
2022/08/27 04:01:09;;;;;;;;;;;20.30;63.40;;;16.31;100.00;95325.19;4934856;28;19953;-44
2022/08/27 04:03:36;;;;;;;;;;;20.30;63.50;;;16.33;100.00;95322.22;4934292;29;20346;-45
2022/08/27 04:06:02;;;;;;;;;;;20.30;63.50;;;16.31;100.00;95319.81;4950544;28;20028;-44
2022/08/27 04:08:37;;;;;;;;;;;20.30;63.50;;;16.30;100.00;95312.88;4935509;29;19925;-44
2022/08/27 04:11:06;;;;;;;;;;;20.30;63.50;;;16.31;100.00;95310.97;4935544;29;19910;-44
2022/08/27 04:13:32;;;;;;;;;;;20.30;63.50;;;16.30;100.00;95307.50;4941778;28;20349;-44
2022/08/27 04:16:03;;;;;;;;;;;20.30;63.50;;;16.31;100.00;95311.75;4953442;28;19914;-45
2022/08/27 04:18:33;;;;;;;;;;;20.30;63.50;;;16.30;100.00;95315.56;4938033;28;19936;-44
2022/08/27 04:21:14;;;;;;;;;;;20.30;63.50;;;16.27;100.00;95310.81;4953035;28;19944;-47
2022/08/27 04:23:42;;;;;;;;;;;20.30;63.60;;;16.28;100.00;95306.22;4918393;29;19906;-44
2022/08/27 04:26:10;;;;;;;;;;;20.30;63.60;;;16.26;100.00;95301.13;4934438;29;19914;-44
2022/08/27 04:28:36;;;;;;;;;;;20.30;63.60;;;16.25;100.00;95304.13;4935482;29;19942;-44
2022/08/27 04:31:03;;;;;;;;;;;20.30;63.60;;;16.24;100.00;95307.94;4934186;29;19911;-44
2022/08/27 04:33:33;;;;;;;;;;;20.30;63.70;;;16.24;100.00;95314.09;4934995;29;19917;-45
2022/08/27 04:36:06;;;;;;;;;;;20.30;63.60;;;16.23;100.00;95314.41;4934207;29;20005;-46
2022/08/27 04:38:33;;;;;;;;;;;20.30;63.70;;;16.25;100.00;95314.88;4950564;28;19910;-45
2022/08/27 04:41:25;;;;;;;;;;;20.30;63.70;;;16.25;100.00;95315.69;4935706;28;19913;-44
2022/08/27 04:44:09;;;;;;;;;;;20.30;64.50;;;16.27;100.00;95312.69;4934209;29;19910;-46
2022/08/27 04:46:39;;;;;;;;;;;20.30;63.80;;;16.27;100.00;95318.88;4935139;29;19906;-45
2022/08/27 04:49:14;;;;;;;;;;;20.30;63.90;;;16.26;100.00;95325.31;4934444;28;20005;-44
2022/08/27 04:51:41;;;;;;;;;;;20.30;63.90;;;16.25;100.00;95328.31;4935698;29;19913;-45
2022/08/27 04:54:09;;;;;;;;;;;20.20;63.80;;;16.24;100.00;95318.69;4949602;28;19910;-46
2022/08/27 04:56:36;;;;;;;;;;;20.20;63.90;;;16.23;100.00;95319.75;4934076;29;20056;-45
2022/08/27 04:59:07;;;;;;;;;;;20.30;64.00;;;16.23;100.00;95327.81;4918293;29;19910;-45
2022/08/27 05:01:34;;;;;;;;;;;20.30;64.00;;;16.23;100.00;95333.19;4935526;28;19910;-44
2022/08/27 05:04:04;;;;;;;;;;;20.30;64.00;;;16.21;100.00;95328.16;4918039;29;20005;-46
2022/08/27 05:06:30;;;;;;;;;;;20.30;64.00;;;16.23;100.00;95327.81;4933150;29;20012;-45
2022/08/27 05:08:59;;;;;;;;;;;20.30;64.00;;;16.25;100.00;95334.50;5002184;23;20017;-45
2022/08/27 05:11:31;;;;;;;;;;;20.40;64.00;;;16.25;100.00;95331.81;4972291;28;19910;-48
2022/08/27 05:13:58;;;;;;;;;;;20.40;64.00;;;16.28;100.00;95336.56;4981277;28;19909;-48
2022/08/27 05:16:26;;;;;;;;;;;20.40;63.90;;;16.31;100.00;95337.84;4979574;28;19909;-47
2022/08/27 05:18:57;;;;;;;;;;;20.50;64.00;;;16.33;100.00;95332.97;4960039;28;19913;-48
2022/08/27 05:21:28;;;;;;;;;;;20.50;64.00;;;16.35;100.00;95333.44;4959851;28;20423;-46
2022/08/27 05:23:57;;;;;;;;;;;20.50;64.00;;;16.38;100.00;95336.31;4956707;28;19905;-49
2022/08/27 05:26:23;;;;;;;;;;;20.60;64.10;;;16.42;100.00;95325.72;4959025;28;19960;-47
2022/08/27 05:28:49;;;;;;;;;;;20.60;64.00;;;16.46;100.00;95331.31;4975912;28;20030;-48
2022/08/27 05:31:19;;;;;;;;;;;20.60;64.00;;;16.49;100.00;95333.38;4976766;28;19909;-48
2022/08/27 05:33:46;;;;;;;;;;;20.60;64.00;;;16.49;100.00;95325.31;4982117;28;20261;-50
2022/08/27 05:36:25;;;;;;;;;;;20.70;64.00;;;16.50;100.00;95325.00;4971509;28;20080;-49
2022/08/27 05:39:00;;;;;;;;;;;20.70;64.00;;;16.50;100.00;95324.22;4958190;28;19916;-48
2022/08/27 05:41:29;;;;;;;;;;;20.70;64.00;;;16.53;100.00;95331.66;4951811;28;19905;-46
2022/08/27 05:44:00;;;;;;;;;;;20.80;64.10;;;16.58;100.00;95326.16;4962292;28;19996;-45
2022/08/27 05:46:27;;;;;;;;;;;20.80;64.10;;;16.61;100.00;95326.34;4978993;28;20371;-46
2022/08/27 05:48:57;;;;;;;;;;;20.80;64.00;;;16.66;100.00;95331.56;4968182;28;19906;-45
2022/08/27 05:51:31;;;;;;;;;;;20.90;64.00;;;16.69;100.00;95330.16;4979321;28;19912;-45
2022/08/27 05:54:20;;;;;;;;;;;20.90;64.10;;;16.72;100.00;95328.75;4986797;28;19955;-47
2022/08/27 05:57:02;;;;;;;;;;;20.90;64.10;;;16.73;100.00;95333.81;4984777;28;20345;-49
2022/08/27 06:02:14;;;;;;;;;;;21.00;64.00;;;16.78;100.00;95333.72;4972155;28;19944;-45
2022/08/27 06:04:40;;;;;;;;;;;21.00;63.90;;;16.79;100.00;95337.19;4971236;28;19939;-45
2022/08/27 06:07:09;;;;;;;;;;;21.10;63.90;;;16.83;100.00;95335.50;4970318;28;19956;-46
2022/08/27 06:09:35;;;;;;;;;;;21.10;63.90;;;16.87;100.00;95336.44;4970238;28;20368;-47
2022/08/27 06:12:01;;;;;;;;;;;21.10;63.80;;;16.90;100.00;95337.72;4976202;28;19913;-49
2022/08/27 06:14:28;;;;;;;;;;;21.20;63.90;;;16.92;100.00;95343.56;4965704;28;19943;-47
2022/08/27 06:16:55;;;;;;;;;;;21.20;64.60;;;16.92;100.00;95340.88;4951208;28;19913;-44
2022/08/27 06:19:22;;;;;;;;;;;21.20;63.80;;;16.95;100.00;95343.75;4919910;28;19910;-45
2022/08/27 06:21:48;;;;;;;;;;;21.20;63.80;;;16.98;100.00;95340.44;4947605;28;19906;-47
2022/08/27 06:24:14;;;;;;;;;;;21.30;63.80;;;17.02;100.00;95340.63;4972147;28;19963;-46
2022/08/27 06:26:43;;;;;;;;;;;21.30;63.80;;;17.03;100.00;95348.38;4969188;28;19940;-45
2022/08/27 06:29:12;;;;;;;;;;;21.30;63.70;;;17.07;100.00;95348.53;4978083;28;20012;-50
2022/08/27 06:31:38;;;;;;;;;;;21.40;63.60;;;17.10;100.00;95342.53;4982972;28;19914;-47
2022/08/27 06:34:07;;;;;;;;;;;21.50;63.70;;;17.13;100.00;95339.22;4955964;28;19993;-45
2022/08/27 06:36:38;;;;;;;;;;;21.50;63.60;;;17.16;100.00;95335.91;4966981;28;20627;-46
2022/08/27 06:39:05;;;;;;;;;;;21.60;63.60;;;17.21;100.00;95345.75;4986528;28;19910;-48
2022/08/27 06:41:35;;;;;;;;;;;21.60;63.50;;;17.24;100.00;95351.31;4970635;28;19915;-50
2022/08/27 06:44:01;;;;;;;;;;;21.70;63.50;;;17.26;100.00;95351.75;4986614;28;19945;-50
2022/08/27 06:46:28;;;;;;;;;;;21.70;63.50;;;17.31;100.00;95353.53;4974866;28;20072;-46
2022/08/27 06:48:58;;;;;;;;;;;21.70;63.50;;;17.33;100.00;95357.50;4966764;28;19921;-48
2022/08/27 06:51:32;;;;;;;;;;;21.70;63.40;;;17.34;99.83;95355.59;4965878;28;20357;-46
2022/08/27 06:54:03;;;;;;;;;;;21.70;63.30;;;17.39;99.83;95360.03;4970171;28;19952;-46
2022/08/27 06:56:32;;;;;;;;;;;21.80;63.40;;;17.40;99.42;95357.03;4950338;28;19918;-47
2022/08/27 06:59:04;;;;;;;;;;;21.80;63.30;;;17.44;99.43;95357.22;4965998;28;19905;-47
2022/08/27 07:01:40;;;;;;;;;;;21.80;63.30;;;17.47;99.43;95359.28;4983620;28;19914;-48
2022/08/27 07:04:12;;;;;;;;;;;21.80;63.30;;;17.54;99.42;95363.06;4965658;28;20381;-48
2022/08/27 07:06:48;;;;;;;;;;;21.80;63.30;;;17.55;99.01;95362.00;4972373;28;20532;-51
2022/08/27 07:09:14;;;;;;;;;;;21.90;63.30;;;17.57;98.48;95357.06;4981713;28;20390;-48
2022/08/27 07:11:40;;;;;;;;;;;21.90;63.20;;;17.60;98.45;95366.41;4946327;28;20013;-47
2022/08/27 07:14:09;;;;;;;;;;;22.00;63.30;;;17.61;97.92;95362.63;4900452;28;20001;-50
2022/08/27 07:16:36;;;;;;;;;;;22.00;63.20;;;17.63;97.71;95371.19;4949742;28;20368;-48
2022/08/27 07:19:07;;;;;;;;;;;22.00;63.20;;;17.66;97.15;95367.06;4968471;28;19948;-46
2022/08/27 07:21:38;;;;;;;;;;;22.10;63.10;;;17.68;97.24;95370.25;4955921;28;19933;-47
2022/08/27 07:24:06;;;;;;;;;;;22.10;63.10;;;17.72;97.21;95374.69;4986751;28;19971;-46
2022/08/27 07:26:36;;;;;;;;;;;22.10;63.00;;;17.78;97.38;95369.97;4961891;28;19920;-50
2022/08/27 07:29:09;;;;;;;;;;;22.20;63.00;;;17.82;96.62;95376.31;4965621;28;19932;-46
2022/08/27 07:31:36;;;;;;;;;;;22.30;63.00;;;17.86;96.81;95373.78;4971751;28;19905;-46
2022/08/27 07:34:04;;;;;;;;;;;22.40;62.90;;;17.95;96.88;95375.38;4982308;28;19910;-47
2022/08/27 07:36:30;;;;;;;;;;;22.40;62.80;;;18.04;96.65;95381.56;4967373;28;19949;-48
2022/08/27 07:38:56;;;;;;;;;;;22.50;62.80;;;18.12;96.82;95379.19;4952947;28;19914;-50
2022/08/27 07:44:27;;;;;;;;;;;22.80;62.70;;;18.29;95.45;95387.25;4967598;28;20315;-48
2022/08/27 07:46:59;;;;;;;;;;;22.90;62.50;;;18.35;94.66;95377.13;4971252;28;19914;-47
2022/08/27 07:49:28;;;;;;;;;;;23.00;62.30;;;18.38;93.95;95388.06;4973383;28;19905;-48
2022/08/27 07:51:54;;;;;;;;;;;23.10;62.20;;;18.42;93.32;95380.91;4973711;28;20006;-47
2022/08/27 07:54:22;;;;;;;;;;;23.10;62.00;;;18.50;93.52;95388.19;4989731;28;19909;-46
2022/08/27 07:56:50;;;;;;;;;;;23.20;61.90;;;18.60;93.03;95384.38;4957341;28;19906;-48
2022/08/27 07:59:16;;;;;;;;;;;23.30;61.80;;;18.65;92.41;95388.81;4973930;28;19921;-45
2022/08/27 08:01:44;;;;;;;;;;;23.40;61.80;;;18.71;92.83;95382.16;4956581;28;19906;-50
2022/08/27 08:04:14;;;;;;;;;;;23.50;61.70;;;18.81;92.99;95391.84;4955711;28;19992;-46
2022/08/27 08:06:40;;;;;;;;;;;23.60;61.60;;;18.88;91.31;95398.31;4962543;28;19906;-46
2022/08/27 08:09:12;;;;;;;;;;;23.70;61.50;;;18.89;90.80;95391.78;4954865;28;19924;-48
2022/08/27 08:11:44;;;;;;;;;;;23.80;61.30;;;19.03;91.02;95394.31;4961213;28;19914;-45
2022/08/27 08:14:13;;;;;;;;;;;23.90;61.20;;;19.12;90.16;95389.66;4974782;28;19956;-47
2022/08/27 08:16:39;;;;;;;;;;;24.00;61.00;;;19.23;90.21;95394.72;4974496;28;19917;-48
2022/08/27 08:19:05;;;;;;;;;;;24.20;60.80;;;19.29;89.56;95401.50;4989044;28;20315;-46
2022/08/27 08:21:37;;;;;;;;;;;24.30;60.60;;;19.39;88.41;95404.63;4973509;28;20028;-46
2022/08/27 08:24:04;;;;;;;;;;;24.40;60.40;;;19.49;87.47;95398.09;4989235;28;19916;-45
2022/08/27 08:26:30;;;;;;;;;;;24.50;60.20;;;19.59;86.88;95411.22;4974537;28;19956;-47
2022/08/27 08:28:59;;;;;;;;;;;24.70;60.10;;;19.71;86.36;95402.47;4974016;28;19932;-46
2022/08/27 08:31:27;;;;;;;;;;;24.80;59.90;;;19.77;84.37;95403.03;4974487;28;19906;-48
2022/08/27 08:33:53;;;;;;;;;;;24.90;59.80;;;19.83;84.54;95405.22;4958221;28;19906;-46
2022/08/27 08:36:28;;;;;;;;;;;25.00;59.60;;;19.77;82.98;95411.16;4979872;28;19914;-45
2022/08/27 08:38:54;;;;;;;;;;;25.10;59.50;;;19.85;84.43;95408.41;4972504;28;19924;-46
2022/08/27 08:41:49;;;;;;;;;;;25.20;59.40;;;19.97;85.31;95409.59;4973171;28;19906;-47
2022/08/27 08:44:34;;;;;;;;;;;25.20;59.20;;;20.08;83.70;95408.09;4974059;28;19906;-46
2022/08/27 08:47:22;;;;;;;;;;;25.30;59.10;;;20.17;83.51;95414.22;4972581;28;19918;-47
2022/08/27 08:50:00;;;;;;;;;;;25.40;59.00;;;20.23;82.92;95420.22;4972998;28;19956;-47
2022/08/27 08:52:49;;;;;;;;;;;25.50;58.90;;;20.32;81.56;95419.03;4973867;28;20291;-50
2022/08/27 08:55:55;;;;;;;;;;;25.60;58.80;;;20.44;81.42;95418.31;4973807;28;19917;-46
2022/08/27 08:58:51;;;;;;;;;;;25.70;58.70;;;20.52;81.21;95420.16;4972343;28;19905;-46
2022/08/27 09:01:21;;;;;;;;;;;25.80;58.60;;;20.62;80.82;95419.00;4964868;28;19909;-45
2022/08/27 09:04:09;;;;;;;;;;;25.90;58.40;;;20.76;80.70;95414.06;4973936;28;19906;-46
2022/08/27 09:07:04;;;;;;;;;;;25.90;58.30;;;20.84;77.91;95417.81;4971438;28;19912;-46
2022/08/27 09:09:59;;;;;;;;;;;26.10;58.30;;;20.92;75.40;95426.97;4953302;28;20376;-46
2022/08/27 09:12:31;;;;;;;;;;;26.10;58.00;;;21.00;76.29;95426.88;4954470;28;19906;-49
2022/08/27 09:15:20;;;;;;;;;;;26.20;57.90;;;21.08;75.21;95427.13;4954258;28;19941;-46
2022/08/27 09:17:49;;;;;;;;;;;26.30;57.70;;;21.22;75.71;95427.63;4954008;28;20000;-47
2022/08/27 09:20:20;;;;;;;;;;;26.40;57.60;;;21.23;74.52;95426.47;4952916;28;19929;-46
2022/08/27 09:23:18;;;;;;;;;;;26.50;57.50;;;21.25;74.82;95424.25;4954336;28;20359;-45
2022/08/27 09:25:56;;;;;;;;;;;26.50;57.20;;;21.35;74.12;95428.44;4954108;28;19906;-47
2022/08/27 09:31:24;;;;;;;;;;;26.60;57.00;;;21.45;73.21;95420.66;4953516;28;19913;-48
2022/08/27 09:33:50;;;;;;;;;;;26.70;56.80;;;21.48;73.24;95430.81;4982143;28;19905;-46
2022/08/27 09:36:17;;;;;;;;;;;26.80;56.70;;;21.44;72.19;95426.44;4960049;28;20357;-51
2022/08/27 09:38:57;;;;;;;;;;;26.80;56.50;;;21.54;73.43;95430.63;4958993;28;19918;-48
2022/08/27 09:41:41;;;;;;;;;;;26.90;56.30;;;21.57;73.89;95427.22;4984003;28;19906;-49
2022/08/27 09:44:13;;;;;;;;;;;26.90;56.20;;;21.58;74.35;95426.09;4965192;28;19940;-49
2022/08/27 09:46:50;;;;;;;;;;;27.00;56.10;;;21.64;73.47;95430.94;4966842;28;19910;-45
2022/08/27 09:49:35;;;;;;;;;;;27.10;56.00;;;21.76;73.34;95422.03;4964526;28;19953;-47
2022/08/27 09:52:02;;;;;;;;;;;27.20;56.00;;;21.71;73.15;95423.03;4965858;28;19909;-46
2022/08/27 09:54:46;;;;;;;;;;;27.20;55.80;;;21.78;72.29;95413.53;4983711;28;19906;-48
2022/08/27 09:57:33;;;;;;;;;;;27.20;55.70;;;21.86;72.17;95412.63;4967919;28;20403;-48
2022/08/27 10:00:00;;;;;;;;;;;27.30;55.60;;;21.87;71.98;95415.03;4979192;28;19974;-46
2022/08/27 10:02:27;;;;;;;;;;;27.40;55.40;;;21.91;71.78;95415.13;4953844;28;19932;-47
2022/08/27 10:05:17;;;;;;;;;;;27.60;55.30;;;21.60;71.68;95416.50;4979113;28;20304;-45
2022/08/27 10:07:51;;;;;;;;;;;27.70;55.00;;;21.73;73.21;95409.16;4974425;28;19918;-46
2022/08/27 10:10:36;;;;;;;;;;;27.70;54.80;;;21.90;71.38;95410.81;4972777;28;19910;-46
2022/08/27 10:13:08;;;;;;;;;;;27.80;54.70;;;22.07;71.11;95413.28;4971332;28;19909;-46
2022/08/27 10:16:06;;;;;;;;;;;27.90;54.60;;;22.26;71.24;95414.63;4987282;28;19910;-46
2022/08/27 10:18:46;;;;;;;;;;;28.00;54.40;;;22.35;70.92;95413.38;4971853;28;20423;-47
2022/08/27 10:21:40;;;;;;;;;;;28.10;54.20;;;22.48;69.01;95405.97;4987505;28;19932;-49
2022/08/27 10:24:40;;;;;;;;;;;28.30;54.20;;;22.74;69.80;95405.53;4985838;28;19907;-48
2022/08/27 10:27:39;;;;;;;;;;;28.40;53.90;;;23.05;65.96;95409.47;4987188;28;20036;-45
2022/08/27 10:30:18;;;;;;;;;;;28.70;53.90;;;23.21;65.70;95404.84;4987144;28;19905;-46
2022/08/27 10:33:15;;;;;;;;;;;28.90;53.60;;;23.44;64.37;95407.75;4971837;28;19948;-45
2022/08/27 10:36:36;;;;;;;;;;;29.10;53.40;;;23.56;63.32;95399.47;4972397;28;19948;-47
2022/08/27 10:40:00;;;;;;;;;;;29.30;53.10;;;23.82;62.37;95391.94;4987190;28;20548;-46
2022/08/27 10:42:51;;;;;;;;;;;29.60;53.00;;;23.97;62.65;95396.56;4972116;28;19937;-47
2022/08/27 10:45:57;;;;;;;;;;;29.90;52.70;;;24.31;59.08;95389.50;4970679;28;20387;-47
2022/08/27 10:48:50;;;;;;;;;;;30.30;52.40;;;24.86;62.42;95392.97;4983521;28;19917;-47
2022/08/27 10:51:33;;;;;;;;;;;31.00;52.60;;;24.94;59.85;95396.59;4981812;28;19906;-46
2022/08/27 10:54:05;;;;;;;;;;;31.40;51.60;;;25.27;57.79;95384.38;4961452;28;19939;-45
2022/08/27 10:56:39;;;;;;;;;;;31.60;51.30;;;25.57;58.77;95382.56;4966357;28;19989;-47
2022/08/27 10:59:29;;;;;;;;;;;32.10;50.80;;;25.72;59.18;95388.22;4956459;28;19913;-46
2022/08/27 11:02:13;;;;;;;;;;;32.50;50.40;;;26.25;54.67;95388.22;4958467;28;19906;-46
2022/08/27 11:04:53;;;;;;;;;;;32.80;49.90;;;26.71;53.72;95385.31;4952757;28;19910;-46
2022/08/27 11:07:40;;;;;;;;;;;33.40;49.20;;;26.51;53.08;95382.75;4952685;28;19897;-49
2022/08/27 11:10:26;;;;;;;;;;;33.80;48.50;;;27.11;52.86;95379.09;4986047;28;19945;-49
2022/08/27 11:12:58;;;;;;;;;;;34.30;47.90;;;27.03;51.82;95382.13;4965616;28;19913;-49
2022/08/27 11:15:42;;;;;;;;;;;34.80;47.30;;;27.26;52.95;95381.97;4935473;29;19918;-50
2022/08/27 11:18:59;;;;;;;;;;;34.90;46.70;;;27.15;53.47;95376.41;4952967;28;19906;-53
2022/08/27 11:21:59;;;;;;;;;;;34.90;46.70;;;27.14;52.27;95377.56;4951530;28;19906;-51
2022/08/27 11:25:08;;;;;;;;;;;34.70;46.40;;;26.90;52.38;95378.88;4952504;28;19906;-47
2022/08/27 11:27:36;;;;;;;;;;;34.40;46.00;;;26.64;52.67;95379.75;4954806;28;19909;-49
2022/08/27 11:30:34;;;;;;;;;;;34.40;45.80;;;26.79;52.41;95375.22;4967408;28;19910;-48
2022/08/27 11:33:13;;;;;;;;;;;34.50;45.50;;;26.89;49.87;95374.53;4947583;28;19909;-49
2022/08/27 11:36:12;;;;;;;;;;;34.60;45.40;;;27.22;52.74;95376.47;4952388;29;20374;-49
2022/08/27 11:38:49;;;;;;;;;;;34.80;45.10;;;26.28;53.10;95365.63;4952097;29;19941;-49
2022/08/27 11:41:30;;;;;;;;;;;35.10;44.70;;;26.53;51.97;95366.75;4952222;29;19920;-49
2022/08/27 11:44:00;;;;;;;;;;;34.80;44.50;;;26.79;52.54;95365.06;4964092;28;20280;-48
2022/08/27 11:46:44;;;;;;;;;;;34.70;44.50;;;26.86;51.43;95361.66;4952027;29;19906;-49
2022/08/27 11:49:29;;;;;;;;;;;34.70;44.40;;;26.86;51.67;95358.94;4958726;28;19909;-49
2022/08/27 11:52:06;;;;;;;;;;;34.70;44.20;;;26.82;53.18;95360.81;4957216;28;19953;-47
2022/08/27 11:55:20;;;;;;;;;;;34.90;44.00;;;27.11;51.95;95359.97;4970011;28;19975;-47
2022/08/27 11:57:50;;;;;;;;;;;35.30;43.70;;;27.44;50.10;95364.56;4961635;28;20277;-50